DLH878 EDDF-ENTC
Flight info
| Callsign | DLH878 |
|---|---|
| Flight time | N/A |
| Altitude | 35000 |
| Route | MARUN8M/25C MARUN Y150 TOLGI DCT ALASA DCT MAVIP DCT PENNO DCT BARVI |
| Aircraft | A321/M-SDE2E3FGIJ1LORWXYZ/HB1 |
Departure
| Time | 2026-05-04 07:12 |
|---|---|
| Airport | Frankfurt Main Airport (EDDF) |
Arrival
| Time | N/A |
|---|---|
| Airport | Tromsø Airport (ENTC) |
| Time | Latitude | Longitude | Altitude | Speed | Heading |
|---|---|---|---|---|---|
| 2026-05-04 06:50 | 50.04884 | 8.57153 | 364 ft | 0 kts | 161° |
| 2026-05-04 07:08 | 50.04559 | 8.56893 | 361 ft | 13 kts | 193° |
| 2026-05-04 07:09 | 50.04464 | 8.56859 | 359 ft | 15 kts | 193° |
| 2026-05-04 07:09 | 50.04351 | 8.56829 | 360 ft | 17 kts | 191° |
| 2026-05-04 07:09 | 50.04277 | 8.56859 | 360 ft | 11 kts | 112° |
| 2026-05-04 07:09 | 50.04294 | 8.56980 | 366 ft | 12 kts | 69° |
| 2026-05-04 07:10 | 50.04326 | 8.57110 | 364 ft | 15 kts | 69° |
| 2026-05-04 07:10 | 50.04371 | 8.57299 | 367 ft | 21 kts | 70° |
| 2026-05-04 07:12 | 50.04002 | 8.56570 | 358 ft | 122 kts | 250° |
| 2026-05-04 07:12 | 50.03641 | 8.55050 | 397 ft | 170 kts | 249° |
| 2026-05-04 07:12 | 50.03220 | 8.53313 | 1064 ft | 172 kts | 249° |
| 2026-05-04 07:12 | 50.02800 | 8.51570 | 1829 ft | 173 kts | 249° |
| 2026-05-04 07:13 | 50.02110 | 8.49980 | 2170 ft | 190 kts | 214° |
| 2026-05-04 07:13 | 50.00837 | 8.49237 | 2622 ft | 199 kts | 198° |
| 2026-05-04 07:13 | 49.99502 | 8.48636 | 3194 ft | 201 kts | 198° |
| 2026-05-04 07:14 | 49.93972 | 8.46082 | 5043 ft | 232 kts | 198° |
| 2026-05-04 07:14 | 49.92419 | 8.45219 | 5545 ft | 239 kts | 213° |
| 2026-05-04 07:15 | 49.91278 | 8.43393 | 6240 ft | 240 kts | 244° |
| 2026-05-04 07:15 | 49.90966 | 8.40868 | 6922 ft | 244 kts | 275° |
| 2026-05-04 07:15 | 49.91453 | 8.38337 | 7608 ft | 249 kts | 296° |
| 2026-05-04 07:15 | 49.92525 | 8.36179 | 8222 ft | 263 kts | 315° |
| 2026-05-04 07:16 | 49.94134 | 8.34642 | 8591 ft | 282 kts | 334° |
| 2026-05-04 07:16 | 49.95977 | 8.33467 | 9218 ft | 287 kts | 334° |
| 2026-05-04 07:16 | 49.97826 | 8.32272 | 9897 ft | 290 kts | 334° |
| 2026-05-04 07:16 | 49.99718 | 8.31034 | 10297 ft | 304 kts | 334° |
| 2026-05-04 07:17 | 50.01728 | 8.29789 | 10425 ft | 327 kts | 339° |
| 2026-05-04 07:17 | 50.04058 | 8.29030 | 10561 ft | 350 kts | 352° |
| 2026-05-04 07:17 | 50.06507 | 8.29067 | 10938 ft | 362 kts | 5° |
| 2026-05-04 07:17 | 50.08990 | 8.29948 | 11479 ft | 369 kts | 17° |